createdAt,value
2023-05-13T00:02:32.551Z,100.00
2023-05-13T00:05:45.871Z,100.00
2023-05-13T00:08:59.024Z,100.00
2023-05-13T00:12:11.705Z,100.00
2023-05-13T00:15:24.116Z,100.00
2023-05-13T00:18:36.866Z,100.00
2023-05-13T00:21:49.390Z,100.00
2023-05-13T00:25:02.316Z,100.00
2023-05-13T00:28:15.190Z,100.00
2023-05-13T00:31:27.894Z,100.00
2023-05-13T00:34:40.294Z,100.00
2023-05-13T00:37:54.449Z,100.00
2023-05-13T00:41:06.837Z,100.00
2023-05-13T00:44:19.441Z,100.00
2023-05-13T00:47:32.307Z,100.00
2023-05-13T00:50:45.088Z,100.00
2023-05-13T00:53:58.860Z,100.00
2023-05-13T00:57:11.536Z,100.00
2023-05-13T01:00:23.936Z,100.00
2023-05-13T01:03:59.564Z,100.00
2023-05-13T01:07:30.382Z,100.00
2023-05-13T01:10:46.930Z,100.00
2023-05-13T01:14:06.974Z,100.00
2023-05-13T01:17:24.517Z,100.00
2023-05-13T01:20:38.278Z,100.00
2023-05-13T01:23:52.299Z,100.00
2023-05-13T01:27:07.875Z,100.00
2023-05-13T01:30:22.346Z,100.00
2023-05-13T01:33:34.996Z,100.00
2023-05-13T01:36:47.816Z,100.00
2023-05-13T01:40:01.138Z,100.00
2023-05-13T01:43:15.405Z,100.00
2023-05-13T01:46:27.814Z,100.00
2023-05-13T01:49:40.766Z,100.00
2023-05-13T01:52:53.457Z,100.00
2023-05-13T01:56:09.145Z,100.00
2023-05-13T01:59:21.788Z,100.00
2023-05-13T02:02:34.519Z,100.00
2023-05-13T02:05:48.669Z,100.00
2023-05-13T02:09:04.199Z,100.00
2023-05-13T02:12:16.930Z,100.00
2023-05-13T02:15:29.292Z,100.00
2023-05-13T02:18:41.957Z,100.00
2023-05-13T02:21:54.375Z,100.00
2023-05-13T02:25:07.600Z,100.00
2023-05-13T02:28:21.998Z,100.00
2023-05-13T02:31:34.714Z,100.00
2023-05-13T02:34:47.972Z,100.00
2023-05-13T02:38:01.700Z,100.00
2023-05-13T02:41:14.296Z,100.00
2023-05-13T02:44:27.348Z,100.00
2023-05-13T02:47:40.201Z,100.00
2023-05-13T02:50:53.096Z,100.00
2023-05-13T02:54:06.809Z,100.00
2023-05-13T02:57:19.550Z,100.00
2023-05-13T03:00:32.062Z,100.00
2023-05-13T03:03:44.878Z,100.00
2023-05-13T03:06:57.286Z,100.00
2023-05-13T03:10:10.524Z,100.00
2023-05-13T03:13:22.919Z,100.00
2023-05-13T03:16:35.584Z,100.00
2023-05-13T03:19:48.198Z,100.00
2023-05-13T03:23:00.883Z,100.00
2023-05-13T03:26:13.375Z,100.00
2023-05-13T03:29:26.172Z,100.00
2023-05-13T03:32:39.295Z,100.00
2023-05-13T03:35:52.333Z,100.00
2023-05-13T03:39:05.640Z,100.00
2023-05-13T03:42:18.881Z,100.00
2023-05-13T03:45:31.367Z,100.00
2023-05-13T03:48:44.962Z,100.00
2023-05-13T03:51:57.406Z,100.00
2023-05-13T03:55:10.166Z,100.00
2023-05-13T03:58:22.924Z,100.00
2023-05-13T04:01:36.057Z,100.00
2023-05-13T04:04:48.751Z,100.00
2023-05-13T04:08:01.188Z,100.00
2023-05-13T04:11:13.837Z,100.00
2023-05-13T04:14:26.263Z,100.00
2023-05-13T04:17:40.815Z,100.00
2023-05-13T04:20:53.255Z,100.00
2023-05-13T04:24:06.894Z,100.00
2023-05-13T04:27:19.263Z,100.00
2023-05-13T04:30:32.784Z,100.00
2023-05-13T04:33:45.368Z,100.00
2023-05-13T04:36:58.504Z,100.00
2023-05-13T04:40:11.352Z,100.00
2023-05-13T04:43:24.106Z,100.00
2023-05-13T04:46:40.473Z,100.00
2023-05-13T04:49:53.453Z,100.00
2023-05-13T04:53:06.260Z,100.00
2023-05-13T04:56:19.100Z,100.00
2023-05-13T04:59:31.668Z,100.00
2023-05-13T05:02:44.369Z,100.00
2023-05-13T05:05:56.814Z,100.00
2023-05-13T05:09:09.750Z,100.00
2023-05-13T05:12:22.772Z,100.00
2023-05-13T05:15:36.071Z,100.00
2023-05-13T05:18:49.569Z,100.00
2023-05-13T05:22:03.199Z,100.00
2023-05-13T05:25:15.852Z,100.00
2023-05-13T05:28:28.608Z,100.00
2023-05-13T05:31:41.795Z,100.00
2023-05-13T05:34:55.157Z,100.00
2023-05-13T05:38:07.925Z,100.00
2023-05-13T05:41:22.156Z,100.00
2023-05-13T05:44:34.687Z,100.00
2023-05-13T05:47:48.372Z,100.00
2023-05-13T05:51:02.367Z,100.00
2023-05-13T05:54:15.134Z,100.00
2023-05-13T05:57:27.849Z,100.00
2023-05-13T06:00:40.582Z,100.00
2023-05-13T06:03:54.891Z,100.00
2023-05-13T06:07:08.302Z,100.00
2023-05-13T06:10:21.297Z,100.00
2023-05-13T06:13:33.969Z,100.00
2023-05-13T06:16:46.756Z,100.00
2023-05-13T06:20:01.232Z,100.00
2023-05-13T06:23:15.088Z,100.00
2023-05-13T06:26:27.531Z,100.00
2023-05-13T06:29:40.210Z,100.00
2023-05-13T06:33:01.727Z,100.00
2023-05-13T06:36:15.690Z,100.00
2023-05-13T06:39:28.122Z,100.00
2023-05-13T06:42:41.740Z,100.00
2023-05-13T06:45:57.822Z,100.00
2023-05-13T06:49:11.783Z,100.00
2023-05-13T06:52:24.168Z,100.00
2023-05-13T06:55:41.719Z,100.00
2023-05-13T06:58:54.301Z,100.00
2023-05-13T07:02:09.766Z,100.00
2023-05-13T07:05:22.333Z,100.00
2023-05-13T07:08:34.990Z,100.00
2023-05-13T07:11:47.431Z,100.00
2023-05-13T07:15:00.234Z,100.00
2023-05-13T07:18:12.690Z,100.00
2023-05-13T07:21:25.812Z,100.00
2023-05-13T07:24:39.221Z,100.00
2023-05-13T07:27:51.872Z,100.00
2023-05-13T07:31:07.283Z,100.00
2023-05-13T07:34:19.991Z,100.00
2023-05-13T07:37:32.413Z,100.00
2023-05-13T07:40:45.101Z,100.00
2023-05-13T07:43:57.468Z,100.00
2023-05-13T07:47:10.184Z,100.00
2023-05-13T07:50:22.575Z,100.00
2023-05-13T07:53:36.717Z,100.00
2023-05-13T07:56:49.255Z,100.00
2023-05-13T08:00:02.052Z,100.00
2023-05-13T08:03:14.592Z,100.00
2023-05-13T08:06:27.349Z,100.00
2023-05-13T08:09:39.782Z,100.00
2023-05-13T08:12:57.594Z,100.00
2023-05-13T08:16:10.088Z,100.00
2023-05-13T08:19:22.782Z,100.00
2023-05-13T08:22:35.158Z,98.12
2023-05-13T08:25:47.788Z,98.10
2023-05-13T08:29:00.422Z,99.17
2023-05-13T08:32:13.109Z,97.84
2023-05-13T08:35:26.209Z,97.85
2023-05-13T08:38:38.971Z,97.81
2023-05-13T08:41:51.898Z,95.06
2023-05-13T08:45:07.791Z,94.21
2023-05-13T08:48:20.223Z,94.02
2023-05-13T08:51:33.660Z,92.95
2023-05-13T08:54:46.018Z,90.27
2023-05-13T08:57:58.662Z,87.67
2023-05-13T09:01:11.057Z,86.93
2023-05-13T09:04:23.752Z,86.99
2023-05-13T09:07:36.900Z,87.58
2023-05-13T09:10:49.759Z,87.05
2023-05-13T09:14:03.594Z,86.70
2023-05-13T09:17:16.228Z,87.15
2023-05-13T09:20:28.864Z,86.74
2023-05-13T09:23:41.506Z,82.36
2023-05-13T09:26:53.981Z,81.81
2023-05-13T09:30:10.646Z,83.01
2023-05-13T09:33:23.142Z,81.94
2023-05-13T09:36:35.797Z,83.23
2023-05-13T09:39:48.149Z,82.57
2023-05-13T09:43:00.784Z,82.19
2023-05-13T09:46:13.132Z,83.20
2023-05-13T09:49:28.544Z,81.23
2023-05-13T09:52:40.894Z,80.91
2023-05-13T09:55:54.797Z,82.90
2023-05-13T09:59:07.205Z,82.03
2023-05-13T10:02:19.917Z,81.66
2023-05-13T10:05:32.865Z,80.53
2023-05-13T10:08:48.320Z,79.97
2023-05-13T10:12:00.992Z,81.07
2023-05-13T10:15:13.385Z,79.26
2023-05-13T10:18:26.312Z,77.72
2023-05-13T10:21:38.767Z,76.36
2023-05-13T10:24:51.421Z,76.50
2023-05-13T10:28:04.836Z,76.17
2023-05-13T10:31:17.765Z,73.79
2023-05-13T10:34:31.444Z,74.64
2023-05-13T10:38:03.031Z,74.52
2023-05-13T10:41:26.895Z,74.28
2023-05-13T10:44:39.515Z,76.67
2023-05-13T10:47:51.965Z,78.04
2023-05-13T10:51:11.406Z,79.69
2023-05-13T10:54:24.936Z,77.98
2023-05-13T10:57:37.849Z,79.04
2023-05-13T11:00:51.148Z,79.99
2023-05-13T11:04:04.989Z,80.77
2023-05-13T11:07:17.590Z,80.96
2023-05-13T11:10:31.801Z,82.41
2023-05-13T11:13:44.192Z,82.90
2023-05-13T11:17:04.441Z,83.22
2023-05-13T11:20:18.370Z,83.65
2023-05-13T11:23:30.971Z,85.67
2023-05-13T11:26:46.948Z,85.42
2023-05-13T11:29:59.575Z,86.96
2023-05-13T11:33:12.773Z,86.71
2023-05-13T11:36:29.997Z,84.95
2023-05-13T11:39:42.483Z,83.56
2023-05-13T11:42:55.566Z,83.13
2023-05-13T11:46:08.012Z,82.17
2023-05-13T11:49:37.658Z,82.40
2023-05-13T11:52:54.372Z,81.27
2023-05-13T11:56:11.010Z,81.77
2023-05-13T11:59:23.851Z,82.64
2023-05-13T12:02:40.683Z,84.28
2023-05-13T12:06:03.089Z,83.03
2023-05-13T12:09:15.590Z,82.43
2023-05-13T12:12:29.252Z,81.16
2023-05-13T12:15:41.693Z,78.86
2023-05-13T12:19:04.348Z,78.56
2023-05-13T12:22:16.670Z,76.93
2023-05-13T12:25:35.922Z,75.25
2023-05-13T12:28:48.452Z,75.35
2023-05-13T12:32:05.407Z,74.57
2023-05-13T12:35:17.934Z,74.18
2023-05-13T12:38:30.628Z,74.81
2023-05-13T12:41:43.834Z,74.08
2023-05-13T12:44:56.878Z,74.13
2023-05-13T12:48:09.578Z,73.70
2023-05-13T12:51:22.713Z,72.54
2023-05-13T12:54:35.826Z,72.87
2023-05-13T12:57:59.730Z,73.22
2023-05-13T13:01:12.187Z,74.38
2023-05-13T13:04:25.014Z,74.43
2023-05-13T13:07:38.187Z,74.38
2023-05-13T13:10:51.069Z,75.88
2023-05-13T13:14:03.494Z,75.70
2023-05-13T13:17:16.391Z,76.50
2023-05-13T13:20:28.781Z,77.14
2023-05-13T13:23:41.495Z,77.43
2023-05-13T13:26:54.511Z,77.12
2023-05-13T13:30:08.138Z,76.81
2023-05-13T13:33:21.074Z,76.42
2023-05-13T13:36:33.852Z,76.02
2023-05-13T13:39:46.208Z,76.64
2023-05-13T13:42:58.892Z,74.98
2023-05-13T13:46:11.325Z,74.24
2023-05-13T13:49:25.099Z,73.71
2023-05-13T13:52:37.488Z,73.62
2023-05-13T13:55:50.170Z,73.19
2023-05-13T13:59:02.504Z,73.72
2023-05-13T14:02:15.182Z,74.57
2023-05-13T14:05:28.159Z,74.68
2023-05-13T14:08:40.480Z,75.43
2023-05-13T14:11:53.802Z,75.65
2023-05-13T14:15:06.869Z,75.35
2023-05-13T14:18:19.554Z,75.96
2023-05-13T14:21:32.480Z,77.15
2023-05-13T14:24:45.203Z,77.32
2023-05-13T14:27:57.532Z,78.53
2023-05-13T14:31:10.395Z,80.00
2023-05-13T14:34:23.762Z,78.84
2023-05-13T14:37:36.445Z,78.68
2023-05-13T14:40:48.804Z,79.32
2023-05-13T14:44:01.668Z,79.26
2023-05-13T14:47:14.096Z,78.50
2023-05-13T14:50:26.813Z,78.60
2023-05-13T14:53:39.731Z,79.45
2023-05-13T14:56:52.801Z,79.76
2023-05-13T15:00:05.777Z,79.42
2023-05-13T15:03:18.568Z,80.77
2023-05-13T15:06:30.972Z,80.59
2023-05-13T15:09:44.152Z,80.63
2023-05-13T15:12:56.722Z,80.70
2023-05-13T15:16:09.394Z,81.58
2023-05-13T15:19:21.756Z,80.98
2023-05-13T15:22:34.496Z,80.43
2023-05-13T15:25:47.088Z,79.59
2023-05-13T15:28:59.945Z,78.47
2023-05-13T15:32:12.347Z,79.70
2023-05-13T15:35:25.028Z,80.59
2023-05-13T15:38:39.871Z,80.28
2023-05-13T15:41:52.716Z,79.99
2023-05-13T15:45:05.572Z,80.14
2023-05-13T15:48:18.283Z,81.78
2023-05-13T15:51:30.598Z,81.66
2023-05-13T15:54:43.332Z,82.10
2023-05-13T15:57:55.767Z,83.35
2023-05-13T16:01:08.415Z,83.16
2023-05-13T16:04:21.159Z,83.55
2023-05-13T16:07:33.510Z,84.08
2023-05-13T16:10:47.176Z,84.29
2023-05-13T16:13:59.524Z,84.15
2023-05-13T16:17:12.877Z,83.75
2023-05-13T16:20:25.512Z,84.42
2023-05-13T16:23:38.283Z,84.66
2023-05-13T16:26:51.771Z,83.97
2023-05-13T16:30:05.532Z,83.98
2023-05-13T16:33:17.931Z,83.49
2023-05-13T16:36:30.703Z,83.48
2023-05-13T16:39:43.131Z,84.09
2023-05-13T16:42:59.289Z,83.73
2023-05-13T16:46:15.275Z,84.07
2023-05-13T16:49:28.085Z,85.08
2023-05-13T16:52:40.523Z,84.03
2023-05-13T16:55:53.646Z,84.63
2023-05-13T16:59:08.660Z,84.55
2023-05-13T17:02:21.382Z,84.39
2023-05-13T17:05:36.365Z,84.37
2023-05-13T17:08:48.972Z,85.50
2023-05-13T17:12:01.419Z,86.99
2023-05-13T17:15:14.071Z,86.16
2023-05-13T17:18:26.622Z,87.16
2023-05-13T17:21:40.887Z,86.74
2023-05-13T17:24:53.231Z,86.48
2023-05-13T17:28:08.111Z,86.79
2023-05-13T17:31:20.515Z,87.56
2023-05-13T17:34:33.186Z,88.24
2023-05-13T17:37:45.572Z,88.13
2023-05-13T17:40:58.236Z,89.79
2023-05-13T17:44:10.685Z,89.82
2023-05-13T17:47:23.382Z,90.48
2023-05-13T17:50:35.773Z,91.22
2023-05-13T17:53:48.440Z,91.25
2023-05-13T17:57:00.821Z,92.06
2023-05-13T18:00:14.021Z,92.81
2023-05-13T18:03:26.867Z,92.94
2023-05-13T18:06:39.251Z,93.41
2023-05-13T18:09:51.873Z,93.29
2023-05-13T18:13:04.414Z,93.79
2023-05-13T18:16:19.481Z,94.00
2023-05-13T18:19:32.197Z,94.49
2023-05-13T18:22:44.805Z,94.70
2023-05-13T18:25:57.228Z,95.01
2023-05-13T18:29:09.948Z,95.79
2023-05-13T18:32:22.302Z,96.11
2023-05-13T18:35:34.941Z,96.74
2023-05-13T18:38:48.057Z,97.08
2023-05-13T18:42:00.954Z,98.00
2023-05-13T18:45:13.543Z,99.28
2023-05-13T18:48:26.193Z,99.21
2023-05-13T18:51:38.566Z,99.82
2023-05-13T18:54:51.236Z,99.38
2023-05-13T18:58:03.612Z,98.62
2023-05-13T19:01:16.274Z,99.18
2023-05-13T19:04:28.850Z,100.00
2023-05-13T19:07:41.624Z,100.00
2023-05-13T19:10:54.011Z,100.00
2023-05-13T19:14:06.945Z,100.00
2023-05-13T19:17:19.330Z,100.00
2023-05-13T19:20:32.025Z,100.00
2023-05-13T19:23:44.382Z,100.00
2023-05-13T19:26:57.047Z,100.00
2023-05-13T19:30:09.818Z,100.00
2023-05-13T19:33:22.531Z,100.00
2023-05-13T19:36:36.568Z,100.00
2023-05-13T19:39:49.246Z,100.00
2023-05-13T19:43:01.603Z,100.00
2023-05-13T19:46:14.295Z,100.00
2023-05-13T19:49:26.700Z,100.00
2023-05-13T19:52:43.708Z,100.00
2023-05-13T19:55:56.097Z,100.00
2023-05-13T19:59:08.762Z,100.00
2023-05-13T20:02:21.203Z,100.00
2023-05-13T20:05:34.896Z,100.00
2023-05-13T20:08:47.296Z,100.00
2023-05-13T20:12:00.422Z,100.00
2023-05-13T20:15:12.810Z,100.00
2023-05-13T20:18:25.768Z,100.00
2023-05-13T20:21:38.228Z,100.00
2023-05-13T20:24:51.106Z,100.00
2023-05-13T20:28:03.634Z,100.00
2023-05-13T20:31:18.041Z,100.00
2023-05-13T20:34:30.883Z,100.00
2023-05-13T20:37:43.562Z,100.00
2023-05-13T20:40:55.981Z,100.00
2023-05-13T20:44:08.648Z,100.00
2023-05-13T20:47:21.556Z,100.00
2023-05-13T20:50:34.237Z,100.00
2023-05-13T20:53:47.395Z,100.00
2023-05-13T20:57:02.947Z,100.00
2023-05-13T21:00:17.154Z,100.00
2023-05-13T21:03:29.891Z,100.00
2023-05-13T21:06:42.325Z,100.00
2023-05-13T21:09:54.992Z,100.00
2023-05-13T21:13:07.371Z,100.00
2023-05-13T21:16:20.046Z,100.00
2023-05-13T21:19:32.516Z,100.00
2023-05-13T21:22:45.329Z,100.00
2023-05-13T21:25:57.669Z,100.00
2023-05-13T21:29:10.286Z,100.00
2023-05-13T21:32:22.624Z,100.00
2023-05-13T21:35:35.373Z,100.00
2023-05-13T21:38:48.415Z,100.00
2023-05-13T21:42:01.156Z,100.00
2023-05-13T21:45:13.556Z,100.00
2023-05-13T21:48:26.368Z,100.00
2023-05-13T21:51:39.238Z,100.00
2023-05-13T21:54:52.585Z,100.00
2023-05-13T21:58:04.993Z,100.00
2023-05-13T22:01:18.196Z,100.00
2023-05-13T22:04:30.971Z,100.00
2023-05-13T22:07:43.397Z,100.00
2023-05-13T22:10:56.205Z,100.00
2023-05-13T22:14:08.696Z,100.00
2023-05-13T22:17:22.396Z,100.00
2023-05-13T22:20:34.936Z,100.00
2023-05-13T22:23:47.547Z,100.00
2023-05-13T22:27:00.323Z,100.00
2023-05-13T22:30:13.104Z,100.00
2023-05-13T22:33:25.682Z,100.00
2023-05-13T22:36:38.430Z,100.00
2023-05-13T22:39:51.114Z,100.00
2023-05-13T22:43:03.826Z,100.00
2023-05-13T22:46:16.256Z,100.00
2023-05-13T22:49:28.948Z,100.00
2023-05-13T22:52:41.286Z,100.00
2023-05-13T22:55:53.937Z,100.00
2023-05-13T22:59:06.273Z,100.00
2023-05-13T23:02:18.937Z,100.00
2023-05-13T23:05:31.319Z,100.00
2023-05-13T23:08:43.951Z,100.00
2023-05-13T23:11:57.619Z,100.00
2023-05-13T23:15:11.778Z,100.00
2023-05-13T23:18:24.964Z,100.00
2023-05-13T23:21:37.602Z,100.00
2023-05-13T23:24:49.966Z,100.00
2023-05-13T23:28:05.129Z,100.00
2023-05-13T23:31:17.528Z,100.00
2023-05-13T23:34:30.170Z,100.00
2023-05-13T23:37:42.564Z,100.00
2023-05-13T23:40:55.227Z,100.00
2023-05-13T23:44:07.616Z,100.00
2023-05-13T23:47:20.272Z,100.00
2023-05-13T23:50:32.851Z,100.00
2023-05-13T23:53:45.499Z,99.87
2023-05-13T23:56:57.904Z,100.00
